Time;durP1;ratioP1;P1;durP2;ratioP2;P2;SDS_P1;SDS_P2;PMS_P1;PMS_P2;Temp;Humidity;BMP_temperature;BMP_pressure;BME280_temperature;BME280_humidity;BME280_pressure;Samples;Min_cycle;Max_cycle;Signal;HPM_P1;HPM_P2
2023/05/20 00:02:39;;;;;;;41.20;29.60;;;;;;;12.34;76.58;101247.05;126692;1295;114945;-66
2023/05/20 00:15:16;;;;;;;43.80;33.10;;;;;;;12.43;76.36;101234.66;125900;1301;638538;-65
2023/05/20 00:19:18;;;;;;;40.20;28.70;;;;;;;12.44;76.51;101237.30;128080;1281;128682;-67
2023/05/20 00:31:59;;;;;;;39.20;29.20;;;;;;;12.40;76.51;101245.36;127778;1294;128731;-67
2023/05/20 00:36:02;;;;;;;36.80;26.30;;;;;;;12.37;76.59;101245.31;126284;1291;115211;-67
2023/05/20 00:40:06;;;;;;;35.10;24.60;;;;;;;12.34;76.54;101245.94;121986;1304;5504731;-67
2023/05/20 00:44:08;;;;;;;35.30;26.40;;;;;;;12.31;76.48;101243.77;125269;1326;114994;-67
2023/05/20 00:56:47;;;;;;;33.10;25.60;;;;;;;12.30;76.64;101236.46;128642;1277;127825;-66
2023/05/20 01:04:56;;;;;;;26.60;21.60;;;;;;;12.22;76.53;101235.17;119123;1290;10833308;-66
2023/05/20 01:09:00;;;;;;;35.70;23.90;;;;;;;12.20;76.24;101235.11;125856;1314;114913;-66
2023/05/20 01:13:02;;;;;;;35.00;23.60;;;;;;;12.17;76.60;101235.20;125010;1322;114938;-64
2023/05/20 01:21:30;;;;;;;31.70;22.70;;;;;;;12.17;76.39;101231.26;126487;1299;637193;-66
2023/05/20 01:33:46;;;;;;;31.30;23.20;;;;;;;12.14;76.37;101230.50;123373;1297;5429240;-70
2023/05/20 01:37:28;;;;;;;;;;;;;;;12.14;76.20;101230.86;126460;1298;114869;-66
2023/05/20 01:41:29;;;;;;;36.90;22.20;;;;;;;12.12;76.12;101229.66;126333;1298;114947;-67
2023/05/20 01:45:30;;;;;;;31.70;21.80;;;;;;;12.11;76.30;101237.23;125597;1312;114939;-66
2023/05/20 01:54:05;;;;;;;29.60;22.40;;;;;;;12.11;76.72;101226.67;125737;1312;638472;-65
2023/05/20 01:58:08;;;;;;;32.80;22.00;;;;;;;12.07;76.47;101227.73;127970;1292;128995;-65
2023/05/20 02:02:10;;;;;;;33.00;23.00;;;;;;;12.06;76.60;101227.42;128828;1274;115243;-66
2023/05/20 02:22:48;;;;;;;28.70;21.70;;;;;;;12.08;76.56;101234.70;125971;1309;640315;-66
2023/05/20 02:26:52;;;;;;;31.00;21.90;;;;;;;12.06;76.90;101235.30;128246;1298;127820;-66
2023/05/20 02:30:55;;;;;;;30.60;22.20;;;;;;;12.05;76.97;101237.84;127412;1297;115485;-67
2023/05/20 02:34:59;;;;;;;29.50;21.90;;;;;;;12.06;76.59;101237.98;122604;1296;5417790;-67
2023/05/20 02:38:55;;;;;;;36.50;21.90;;;;;;;12.04;76.76;101236.98;125754;1313;114948;-66
2023/05/20 02:47:30;;;;;;;27.70;20.90;;;;;;;12.06;77.06;101233.67;125629;1300;639982;-66
2023/05/20 02:51:32;;;;;;;33.40;21.60;;;;;;;12.07;77.05;101238.14;127604;1286;128960;-65
2023/05/20 02:55:27;;;;;;;32.00;22.30;;;;;;;12.07;76.97;101232.55;127611;1286;115317;-66
2023/05/20 02:59:23;;;;;;;33.90;21.60;;;;;;;12.07;76.70;101224.52;123290;1299;5438064;-66
2023/05/20 03:03:25;;;;;;;33.30;23.30;;;;;;;12.07;77.02;101222.90;126095;1293;114865;-65
2023/05/20 03:07:24;;;;;;;;;;;;;;;;;;;;;
2023/05/20 03:11:57;;;;;;;38.40;22.90;;;;;;;12.09;77.23;101222.82;126365;1295;637824;-67
2023/05/20 03:20:35;;;;;;;35.30;22.30;;;;;;;12.10;77.35;101225.29;125974;1295;638463;-65
2023/05/20 03:24:36;;;;;;;36.50;23.00;;;;;;;12.10;77.41;101222.77;127627;1286;128707;-65
2023/05/20 03:28:38;;;;;;;30.90;20.70;;;;;;;12.11;77.18;101214.50;126785;1310;114945;-66
2023/05/20 03:32:41;;;;;;;32.20;21.20;;;;;;;12.13;77.21;101225.88;122484;1314;5437442;-66
2023/05/20 03:36:45;;;;;;;34.10;22.40;;;;;;;12.14;76.97;101226.55;126439;1293;115394;-66
2023/05/20 03:40:46;;;;;;;28.90;20.60;;;;;;;12.15;77.32;101229.93;125846;1296;114913;-66
2023/05/20 03:44:48;;;;;;;28.60;20.90;;;;;;;12.15;77.41;101230.09;125094;1309;115010;-66
2023/05/20 03:57:19;;;;;;;28.60;20.90;;;;;;;12.20;77.26;101239.91;126314;1297;637716;-67
2023/05/20 04:01:24;;;;;;;34.10;19.70;;;;;;;12.17;77.57;101243.44;127751;1285;129114;-67
2023/05/20 04:05:18;;;;;;;26.80;19.20;;;;;;;12.17;77.21;101242.17;126622;1294;115278;-66
2023/05/20 04:09:20;;;;;;;27.50;18.30;;;;;;;12.19;77.34;101243.00;121735;1307;5436864;-66
2023/05/20 04:17:47;;;;;;;28.20;20.50;;;;;;;12.27;77.40;101242.13;125878;1296;637775;-65
2023/05/20 04:21:49;;;;;;;29.50;19.30;;;;;;;12.27;77.30;101246.78;128994;1282;128953;-66
2023/05/20 04:29:53;;;;;;;28.90;18.50;;;;;;;12.33;77.36;101260.34;122000;1299;5423579;-66
2023/05/20 04:33:54;;;;;;;25.70;18.80;;;;;;;12.35;77.54;101259.92;125258;1307;114948;-65
2023/05/20 04:37:56;;;;;;;26.40;16.90;;;;;;;12.38;77.45;101257.63;124608;1333;114853;-66
2023/05/20 04:41:56;;;;;;;;;;;;;;;;;;;;;
2023/05/20 04:50:34;;;;;;;29.10;18.30;;;;;;;12.51;77.45;101245.24;125776;1299;638687;-66
2023/05/20 04:54:39;;;;;;;26.00;17.40;;;;;;;12.53;77.56;101253.59;127913;1302;128568;-67
2023/05/20 04:58:39;;;;;;;;;;;;;;;;;;;;;
2023/05/20 05:02:45;;;;;;;28.40;17.40;;;;;;;12.58;77.52;101254.12;122160;1296;5482423;-64
2023/05/20 05:06:45;;;;;;;27.30;18.90;;;;;;;12.59;77.52;101249.39;125082;1308;114823;-67
2023/05/20 05:15:11;;;;;;;27.00;21.20;;;;;;;12.67;77.47;101243.52;125927;1295;636821;-66
2023/05/20 05:19:12;;;;;;;;;;;;;;;;;;;;;
2023/05/20 05:23:15;;;;;;;27.20;19.50;;;;;;;12.80;77.32;101238.10;127198;1289;115299;-66
2023/05/20 05:31:14;;;;;;;32.60;21.10;;;;;;;12.93;77.03;101235.92;125144;1322;114900;-68
2023/05/20 05:39:40;;;;;;;37.50;23.90;;;;;;;13.02;76.52;101251.48;126404;1298;636827;-65
2023/05/20 05:47:49;;;;;;;34.60;22.20;;;;;;;13.00;76.25;101255.87;127139;1292;114947;-67
2023/05/20 05:51:39;;;;;;;34.30;22.20;;;;;;;13.03;76.35;101256.10;122159;1299;5422183;-66
2023/05/20 06:00:06;;;;;;;39.10;24.60;;;;;;;13.06;76.29;101251.12;126084;1300;636015;-66
2023/05/20 06:04:08;;;;;;;36.60;24.90;;;;;;;13.05;76.12;101254.59;127365;1284;128576;-67
2023/05/20 06:08:16;;;;;;;33.80;24.50;;;;;;;13.05;76.07;101255.86;126817;1294;115460;-65
2023/05/20 06:20:20;;;;;;;33.30;22.80;;;;;;;12.99;76.21;101265.58;125073;1310;114888;-66
2023/05/20 06:24:13;;;;;;;;;;;;;;;;;;;;;
2023/05/20 06:32:51;;;;;;;34.10;23.50;;;;;;;13.03;76.20;101266.86;128468;1276;128742;-66
2023/05/20 06:36:54;;;;;;;40.50;24.80;;;;;;;13.03;76.25;101261.30;128214;1278;115323;-66
2023/05/20 06:53:00;;;;;;;29.20;20.00;;;;;;;13.02;76.24;101268.34;124046;1313;129800;-67
2023/05/20 07:01:24;;;;;;;29.40;18.70;;;;;;;13.19;75.34;101273.89;126645;1296;637079;-67
2023/05/20 07:05:28;;;;;;;;;;;;;;;;;;;;;
2023/05/20 07:09:32;;;;;;;26.60;18.30;;;;;;;13.34;75.25;101266.55;127760;1302;115265;-67
2023/05/20 07:17:36;;;;;;;22.90;16.70;;;;;;;13.49;75.28;101263.02;126153;1298;114960;-65
2023/05/20 07:30:12;;;;;;;20.00;14.60;;;;;;;13.79;74.68;101255.16;125666;1304;639845;-66
2023/05/20 07:34:15;;;;;;;19.50;14.00;;;;;;;13.84;74.54;101252.96;128422;1281;128032;-67
2023/05/20 07:38:18;;;;;;;16.70;13.90;;;;;;;13.90;74.19;101248.73;126766;1290;115586;-68
2023/05/20 07:42:19;;;;;;;21.60;14.70;;;;;;;13.94;73.90;101246.92;122510;1299;5448619;-66
2023/05/20 07:46:20;;;;;;;17.60;13.80;;;;;;;14.01;74.21;101248.91;125729;1305;114949;-68
2023/05/20 07:54:23;;;;;;;17.50;13.30;;;;;;;14.19;73.97;101245.34;125028;1327;114997;-68
2023/05/20 08:02:53;;;;;;;17.50;13.80;;;;;;;14.40;73.63;101242.70;126072;1296;638753;-66
2023/05/20 08:06:56;;;;;;;19.80;14.60;;;;;;;14.52;73.63;101240.98;129771;1272;128892;-68
2023/05/20 08:10:50;;;;;;;;;;;;;;;;;;;;;
2023/05/20 08:27:35;;;;;;;19.90;14.90;;;;;;;15.10;71.86;101213.55;125451;1302;638349;-67
2023/05/20 08:31:37;;;;;;;16.80;13.90;;;;;;;15.27;71.33;101208.85;127360;1282;128059;-66
2023/05/20 08:35:39;;;;;;;16.60;13.70;;;;;;;15.49;71.66;101206.73;125905;1296;115394;-67
2023/05/20 08:39:40;;;;;;;18.20;14.20;;;;;;;15.74;70.94;101202.31;121296;1310;5435264;-67
2023/05/20 08:43:41;;;;;;;15.80;13.30;;;;;;;15.94;70.45;101197.77;124307;1333;114892;-67
2023/05/20 08:56:41;;;;;;;17.30;11.90;;;;;;;16.61;69.29;101189.52;128242;1280;127343;-67
2023/05/20 09:04:47;;;;;;;12.00;9.90;;;;;;;17.22;67.50;101197.73;123658;1285;5539378;-66
2023/05/20 09:08:51;;;;;;;11.50;10.20;;;;;;;17.31;67.31;101192.45;126602;1295;114973;-66
2023/05/20 09:12:52;;;;;;;12.60;10.40;;;;;;;17.37;66.55;101187.73;126170;1292;115567;-66
2023/05/20 09:20:55;;;;;;;16.70;12.50;;;;;;;17.59;65.92;101189.37;126544;1298;130121;-65
2023/05/20 09:29:23;;;;;;;12.70;10.80;;;;;;;17.79;65.78;101199.34;125968;1295;637494;-66
2023/05/20 09:33:27;;;;;;;15.10;11.40;;;;;;;18.02;65.74;101193.88;127306;1300;128252;-66
2023/05/20 09:41:32;;;;;;;14.30;11.60;;;;;;;18.11;64.10;101178.48;122172;1301;5422349;-65
2023/05/20 09:45:23;;;;;;;;;;;;;;;;;;;;;
2023/05/20 09:53:51;;;;;;;13.30;11.90;;;;;;;17.93;63.10;101163.52;125575;1304;635831;-63
2023/05/20 09:57:44;;;;;;;14.40;11.60;;;;;;;18.04;63.77;101162.26;128615;1272;128866;-65
2023/05/20 10:01:46;;;;;;;16.60;13.10;;;;;;;18.07;62.90;101163.70;127566;1284;115260;-64
2023/05/20 10:05:50;;;;;;;16.10;11.80;;;;;;;18.03;63.45;101165.40;123180;1291;5475621;-65
2023/05/20 10:09:51;;;;;;;;;;;;;;;;;;;;;
2023/05/20 10:14:04;;;;;;;;;;;;;;;;;;;;;
2023/05/20 10:18:24;;;;;;;;;;;;;;;18.25;62.85;101156.58;126278;1293;114953;-64
2023/05/20 10:21:58;;;;;;;14.70;11.40;;;;;;;18.19;62.86;101158.14;126091;1304;129922;-66
2023/05/20 10:25:44;;;;;;;14.60;11.50;;;;;;;18.14;62.42;101161.80;125772;1312;115217;-64
2023/05/20 10:28:45;;;;;;;16.50;13.20;;;;;;;18.03;62.75;101168.85;127937;1264;114769;-66
2023/05/20 10:31:51;;;;;;;15.70;12.30;;;;;;;18.00;62.61;101163.28;129004;1272;114771;-67
2023/05/20 10:35:07;;;;;;;12.30;11.00;;;;;;;18.01;63.03;101164.09;128722;1289;115300;-62
2023/05/20 10:38:11;;;;;;;11.70;10.40;;;;;;;18.08;62.85;101154.58;128662;1271;128960;-62
2023/05/20 10:41:20;;;;;;;14.20;12.30;;;;;;;18.08;62.77;101151.14;128727;1269;115212;-64
2023/05/20 10:44:22;;;;;;;15.50;11.70;;;;;;;17.99;62.57;101145.64;128431;1283;114901;-71
2023/05/20 10:47:25;;;;;;;17.20;12.60;;;;;;;17.90;62.94;101139.45;128961;1275;114821;-74
2023/05/20 10:50:40;;;;;;;14.30;11.80;;;;;;;17.96;63.03;101135.32;129032;1267;114700;-74
2023/05/20 10:53:45;;;;;;;15.30;12.30;;;;;;;18.00;63.05;101137.39;129065;1284;128617;-67
2023/05/20 10:56:52;;;;;;;15.00;13.20;;;;;;;18.10;63.23;101135.29;129147;1272;114729;-66
2023/05/20 10:59:55;;;;;;;17.90;11.70;;;;;;;18.37;63.05;101128.94;129078;1272;115311;-68
2023/05/20 11:02:58;;;;;;;16.70;12.30;;;;;;;18.56;62.39;101126.33;129097;1266;114785;-67
2023/05/20 11:06:01;;;;;;;13.70;11.00;;;;;;;18.63;62.08;101122.45;129042;1270;114778;-61
2023/05/20 11:09:05;;;;;;;15.30;11.50;;;;;;;18.72;62.31;101119.48;129454;1283;114781;-62
2023/05/20 11:12:07;;;;;;;17.00;12.20;;;;;;;18.77;61.78;101116.36;129544;1260;115282;-62
2023/05/20 11:15:12;;;;;;;14.00;12.40;;;;;;;18.71;61.48;101117.54;129338;1281;114832;-62
2023/05/20 11:18:14;;;;;;;15.60;12.60;;;;;;;18.71;61.83;101115.77;129515;1283;114651;-63
2023/05/20 11:21:19;;;;;;;15.40;11.90;;;;;;;18.68;61.43;101115.22;129241;1283;114760;-69
2023/05/20 11:24:24;;;;;;;12.80;11.00;;;;;;;18.65;61.56;101109.45;129278;1271;128044;-62
2023/05/20 11:27:27;;;;;;;13.70;11.60;;;;;;;18.78;61.78;101102.02;129243;1266;115247;-66
2023/05/20 11:30:30;;;;;;;15.50;11.90;;;;;;;18.79;61.05;101098.70;129477;1265;114775;-62
2023/05/20 11:33:33;;;;;;;14.90;11.40;;;;;;;18.71;61.35;101096.89;129451;1260;114713;-67
2023/05/20 11:36:40;;;;;;;21.30;11.70;;;;;;;18.73;61.40;101092.40;129530;1261;115346;-66
2023/05/20 11:39:43;;;;;;;15.90;12.40;;;;;;;18.82;61.83;101098.84;129231;1284;127873;-64
2023/05/20 11:42:46;;;;;;;16.40;12.80;;;;;;;18.82;61.40;101100.48;129532;1265;114696;-69
2023/05/20 11:45:54;;;;;;;16.30;12.30;;;;;;;18.76;61.46;101101.41;129548;1264;114790;-67
2023/05/20 11:48:57;;;;;;;19.50;13.90;;;;;;;18.82;61.59;101101.21;129499;1267;114741;-66
2023/05/20 11:52:02;;;;;;;16.00;12.70;;;;;;;18.86;61.60;101100.16;129331;1281;114800;-65
2023/05/20 11:55:10;;;;;;;15.50;12.40;;;;;;;18.91;61.68;101106.37;129396;1278;129719;-71
2023/05/20 11:58:18;;;;;;;19.10;14.30;;;;;;;18.93;61.40;101112.34;129497;1260;115259;-71
2023/05/20 12:01:21;;;;;;;17.80;14.00;;;;;;;18.88;61.34;101112.34;129218;1265;114742;-78
2023/05/20 12:04:23;;;;;;;15.40;13.00;;;;;;;18.83;61.26;101111.42;129492;1265;114704;-78
2023/05/20 12:07:27;;;;;;;17.70;13.40;;;;;;;18.76;61.01;101111.20;129525;1278;115392;-79
2023/05/20 12:10:30;;;;;;;15.50;12.70;;;;;;;18.75;61.59;101102.96;129403;1283;114715;-74
2023/05/20 12:13:33;;;;;;;14.70;12.70;;;;;;;18.75;61.28;101099.67;129515;1278;114770;-74
2023/05/20 12:16:36;;;;;;;16.20;12.40;;;;;;;18.72;61.25;101096.64;129488;1278;114782;-68
2023/05/20 12:19:38;;;;;;;14.20;11.80;;;;;;;18.72;61.33;101098.86;129553;1265;114693;-75
2023/05/20 12:22:44;;;;;;;18.20;13.40;;;;;;;18.66;61.16;101094.53;129495;1279;114792;-67
2023/05/20 12:25:48;;;;;;;16.30;12.50;;;;;;;18.60;61.52;101094.59;129233;1281;114708;-76
2023/05/20 12:28:50;;;;;;;14.90;12.10;;;;;;;18.63;61.63;101090.19;129545;1276;127761;-75
2023/05/20 12:31:53;;;;;;;14.70;12.50;;;;;;;18.72;61.83;101088.55;129398;1278;114811;-69
2023/05/20 12:34:56;;;;;;;17.80;13.00;;;;;;;18.77;61.84;101085.61;129366;1265;115088;-75
2023/05/20 12:37:58;;;;;;;34.50;23.70;;;;;;;18.86;61.76;101081.02;129596;1283;114798;-68
2023/05/20 12:41:01;;;;;;;17.10;13.50;;;;;;;18.94;61.92;101074.62;129230;1268;116378;-67
2023/05/20 12:44:03;;;;;;;25.90;14.50;;;;;;;19.03;61.26;101075.09;129291;1278;114703;-72
2023/05/20 12:47:05;;;;;;;20.00;16.40;;;;;;;19.04;61.34;101070.17;129367;1264;114765;-65
2023/05/20 12:50:08;;;;;;;18.60;14.00;;;;;;;19.13;61.43;101061.69;129435;1265;115312;-66
2023/05/20 12:53:10;;;;;;;15.10;12.30;;;;;;;19.19;61.25;101056.79;129212;1268;115217;-65
2023/05/20 12:56:12;;;;;;;18.10;14.20;;;;;;;19.22;61.19;101058.52;129379;1281;114717;-65
2023/05/20 12:59:14;;;;;;;18.00;14.40;;;;;;;19.28;61.32;101054.64;129325;1283;115075;-63
2023/05/20 13:02:18;;;;;;;18.90;15.00;;;;;;;19.40;61.13;101055.16;129317;1283;114818;-67
2023/05/20 13:05:21;;;;;;;21.90;15.80;;;;;;;19.47;60.87;101052.13;129558;1282;114885;-66
2023/05/20 13:08:23;;;;;;;20.10;16.80;;;;;;;19.58;60.66;101049.70;129360;1281;114649;-65
2023/05/20 13:11:25;;;;;;;21.90;16.60;;;;;;;19.61;60.40;101044.19;129361;1281;114760;-67
2023/05/20 13:14:28;;;;;;;20.70;15.30;;;;;;;19.65;60.26;101045.56;129556;1264;114794;-66
2023/05/20 13:17:31;;;;;;;19.30;16.70;;;;;;;19.64;60.30;101040.91;129529;1265;114790;-64
2023/05/20 13:20:33;;;;;;;20.30;17.20;;;;;;;19.72;60.18;101039.17;129651;1265;115226;-64
2023/05/20 13:23:36;;;;;;;21.40;17.10;;;;;;;19.80;60.08;101035.54;129423;1283;115221;-64
2023/05/20 13:26:38;;;;;;;22.20;17.00;;;;;;;19.81;59.39;101034.55;129592;1283;114789;-63
2023/05/20 13:29:42;;;;;;;20.00;16.50;;;;;;;19.82;59.90;101034.30;129365;1281;129016;-64
2023/05/20 13:32:45;;;;;;;20.20;17.40;;;;;;;19.88;59.46;101037.47;129120;1283;115163;-67
2023/05/20 13:35:47;;;;;;;23.60;17.30;;;;;;;19.88;59.10;101033.11;129567;1281;114813;-66
2023/05/20 13:38:50;;;;;;;23.90;18.50;;;;;;;19.89;59.44;101034.83;129816;1263;114923;-68
2023/05/20 13:41:53;;;;;;;24.10;19.00;;;;;;;20.00;59.28;101036.35;129610;1283;114842;-64
2023/05/20 13:44:56;;;;;;;26.70;20.70;;;;;;;20.02;59.11;101033.89;129436;1265;114811;-65
2023/05/20 13:47:59;;;;;;;22.50;18.60;;;;;;;20.03;59.10;101027.57;129901;1265;114779;-66
2023/05/20 13:51:01;;;;;;;23.60;17.30;;;;;;;20.02;58.59;101025.89;129894;1260;114751;-64
2023/05/20 13:54:05;;;;;;;20.40;16.80;;;;;;;19.93;58.60;101014.77;129707;1283;114716;-62
2023/05/20 13:57:07;;;;;;;21.90;17.10;;;;;;;19.82;58.88;101016.11;129615;1279;114654;-64
2023/05/20 14:00:10;;;;;;;22.10;17.50;;;;;;;19.80;59.19;101012.84;129467;1283;114723;-65
2023/05/20 14:03:12;;;;;;;23.80;17.30;;;;;;;19.78;59.19;101007.96;129550;1267;114725;-65
2023/05/20 14:06:17;;;;;;;21.10;17.10;;;;;;;19.68;59.24;101006.48;129451;1283;115390;-65
2023/05/20 14:09:24;;;;;;;22.60;18.20;;;;;;;19.56;59.42;100997.09;129188;1283;114764;-65
2023/05/20 14:12:27;;;;;;;19.70;17.40;;;;;;;19.45;59.50;100993.94;129628;1265;114716;-65
2023/05/20 14:15:40;;;;;;;26.50;19.20;;;;;;;19.41;59.81;100994.96;130017;1264;114658;-65
2023/05/20 14:18:56;;;;;;;21.90;17.50;;;;;;;19.41;59.87;100992.79;129166;1272;115662;-66
2023/05/20 14:22:00;;;;;;;23.70;18.70;;;;;;;19.39;59.88;100987.36;131424;1265;114735;-64
2023/05/20 14:25:02;;;;;;;24.30;18.60;;;;;;;19.37;60.27;100988.19;129710;1266;114725;-65
2023/05/20 14:28:05;;;;;;;25.50;18.00;;;;;;;19.37;60.54;100977.31;129491;1285;114793;-65
2023/05/20 14:31:09;;;;;;;23.40;18.30;;;;;;;19.41;60.66;100973.59;129593;1268;114988;-67
2023/05/20 14:34:15;;;;;;;21.10;17.60;;;;;;;19.43;60.45;100968.92;129547;1268;115185;-66
2023/05/20 14:37:18;;;;;;;23.70;19.40;;;;;;;19.37;60.37;100965.77;129181;1273;114821;-65
2023/05/20 14:40:21;;;;;;;23.50;20.00;;;;;;;19.32;60.43;100961.45;129498;1265;114741;-67
2023/05/20 14:43:23;;;;;;;27.40;19.70;;;;;;;19.32;60.69;100956.95;129772;1285;114749;-66
2023/05/20 14:46:26;;;;;;;22.60;18.20;;;;;;;19.35;60.81;100949.93;129647;1265;114724;-65
2023/05/20 14:49:28;;;;;;;22.40;18.90;;;;;;;19.39;60.81;100946.73;129817;1268;115124;-65
2023/05/20 14:52:31;;;;;;;25.60;20.50;;;;;;;19.43;60.88;100948.21;129386;1269;114793;-65
2023/05/20 14:55:33;;;;;;;27.50;20.60;;;;;;;19.47;61.14;100942.17;129456;1278;114751;-66
2023/05/20 14:58:36;;;;;;;27.20;19.70;;;;;;;19.48;61.12;100941.16;129454;1285;115498;-65
2023/05/20 15:01:38;;;;;;;24.50;18.50;;;;;;;19.53;61.40;100940.05;129345;1285;114764;-65
2023/05/20 15:04:41;;;;;;;25.10;19.60;;;;;;;19.58;61.30;100938.42;129322;1285;115231;-66
2023/05/20 15:07:43;;;;;;;22.00;19.00;;;;;;;19.57;61.19;100932.52;129330;1266;115076;-65
2023/05/20 15:10:46;;;;;;;24.00;20.50;;;;;;;19.50;61.16;100927.06;129206;1262;114806;-66
2023/05/20 15:13:50;;;;;;;23.10;19.80;;;;;;;19.41;61.32;100925.02;129287;1268;114729;-66
2023/05/20 15:16:53;;;;;;;24.60;20.60;;;;;;;19.37;61.48;100919.20;129320;1266;114663;-66
2023/05/20 15:19:56;;;;;;;28.40;21.30;;;;;;;19.36;61.69;100913.69;129337;1284;114924;-66
2023/05/20 15:22:59;;;;;;;25.30;21.20;;;;;;;19.36;61.84;100907.14;129392;1265;114822;-66
2023/05/20 15:26:02;;;;;;;25.40;21.10;;;;;;;19.39;61.92;100902.39;129372;1266;114761;-65
2023/05/20 15:29:05;;;;;;;30.40;22.40;;;;;;;19.42;61.91;100899.77;129408;1265;114732;-65
2023/05/20 15:32:07;;;;;;;26.80;22.40;;;;;;;19.46;61.97;100894.41;129512;1265;114819;-66
2023/05/20 15:35:11;;;;;;;29.20;22.60;;;;;;;19.51;61.99;100889.30;129313;1265;114795;-66
2023/05/20 15:38:15;;;;;;;25.40;21.30;;;;;;;19.59;62.08;100887.82;129383;1263;115168;-65
2023/05/20 15:41:17;;;;;;;25.40;21.80;;;;;;;19.66;62.20;100882.93;129345;1266;114812;-66
2023/05/20 15:44:20;;;;;;;28.00;23.70;;;;;;;19.70;62.09;100883.81;129381;1263;114736;-67
2023/05/20 15:47:22;;;;;;;29.50;24.00;;;;;;;19.73;62.11;100877.07;129250;1263;116305;-65
2023/05/20 15:50:27;;;;;;;30.90;24.00;;;;;;;19.80;62.15;100871.69;129137;1273;114799;-66
2023/05/20 15:53:29;;;;;;;34.90;24.10;;;;;;;19.86;62.33;100870.84;129163;1265;114789;-66
2023/05/20 15:56:32;;;;;;;29.60;23.60;;;;;;;19.90;62.12;100874.13;129402;1267;115359;-66
2023/05/20 15:59:35;;;;;;;27.30;24.00;;;;;;;19.91;62.07;100873.17;129212;1265;114728;-66
2023/05/20 16:02:39;;;;;;;30.00;24.90;;;;;;;19.95;62.02;100868.28;129297;1268;114713;-66
2023/05/20 16:05:42;;;;;;;31.80;26.30;;;;;;;19.99;62.17;100866.56;129135;1266;114927;-67
2023/05/20 16:08:45;;;;;;;33.00;26.50;;;;;;;20.00;62.05;100863.90;129284;1276;114780;-69
2023/05/20 16:11:47;;;;;;;29.80;24.90;;;;;;;19.98;61.87;100865.00;129349;1285;115317;-66
2023/05/20 16:14:50;;;;;;;27.70;23.70;;;;;;;19.95;61.88;100860.30;129200;1271;114916;-67
2023/05/20 16:17:52;;;;;;;30.30;25.20;;;;;;;19.95;62.04;100857.65;129427;1266;114731;-68
2023/05/20 16:20:56;;;;;;;33.50;26.90;;;;;;;19.92;62.00;100860.76;129442;1276;114743;-66
2023/05/20 16:23:58;;;;;;;29.20;25.40;;;;;;;19.91;62.28;100852.02;129454;1266;114727;-67
2023/05/20 16:27:01;;;;;;;29.80;25.70;;;;;;;19.90;62.52;100850.40;129352;1265;114863;-65
2023/05/20 16:30:06;;;;;;;30.00;25.60;;;;;;;19.91;62.56;100847.41;129443;1263;114817;-68
2023/05/20 16:33:08;;;;;;;33.00;25.60;;;;;;;19.90;62.56;100845.87;129177;1271;114794;-68
2023/05/20 16:36:10;;;;;;;28.30;23.60;;;;;;;19.87;62.60;100839.61;129304;1281;114808;-68
2023/05/20 16:39:14;;;;;;;28.60;24.00;;;;;;;19.84;62.55;100835.29;129348;1265;114794;-67
2023/05/20 16:42:16;;;;;;;28.60;23.30;;;;;;;19.80;62.59;100829.61;129519;1274;114794;-68
2023/05/20 16:45:18;;;;;;;29.00;23.80;;;;;;;19.76;62.70;100831.55;129491;1260;114732;-66
2023/05/20 16:48:21;;;;;;;27.60;24.20;;;;;;;19.72;62.73;100827.36;129308;1275;115179;-65
2023/05/20 16:51:23;;;;;;;29.60;23.90;;;;;;;19.68;62.81;100823.98;129315;1265;115155;-66
2023/05/20 16:54:26;;;;;;;25.70;22.80;;;;;;;19.65;62.97;100823.33;129382;1274;114796;-67
2023/05/20 16:57:28;;;;;;;28.40;22.60;;;;;;;19.61;63.04;100825.48;129305;1267;115229;-66
2023/05/20 17:00:30;;;;;;;30.50;23.60;;;;;;;19.58;63.24;100828.27;129482;1266;114712;-66
2023/05/20 17:03:34;;;;;;;28.90;24.10;;;;;;;19.55;63.43;100832.29;129472;1269;114793;-66
2023/05/20 17:06:38;;;;;;;27.90;24.90;;;;;;;19.53;63.53;100834.27;129434;1265;127835;-65
2023/05/20 17:09:40;;;;;;;35.90;27.90;;;;;;;19.50;63.66;100835.21;129220;1269;114944;-66
2023/05/20 17:12:42;;;;;;;31.70;25.70;;;;;;;19.47;63.88;100830.02;129412;1274;115282;-66
2023/05/20 17:15:44;;;;;;;32.90;26.20;;;;;;;19.43;63.85;100834.88;129406;1266;114705;-66
2023/05/20 17:18:47;;;;;;;35.30;27.70;;;;;;;19.37;64.07;100835.84;129139;1260;114828;-67
2023/05/20 17:21:49;;;;;;;32.80;26.70;;;;;;;19.34;64.14;100837.23;129267;1266;114778;-67
2023/05/20 17:24:51;;;;;;;33.10;27.60;;;;;;;19.30;64.39;100831.92;129239;1266;114801;-67
2023/05/20 17:27:53;;;;;;;37.70;28.80;;;;;;;19.24;64.48;100833.96;129417;1263;114777;-66
2023/05/20 17:30:55;;;;;;;39.30;29.60;;;;;;;19.18;64.85;100830.13;129246;1266;115209;-66
2023/05/20 17:33:58;;;;;;;34.80;30.00;;;;;;;19.12;64.81;100829.83;129409;1275;115241;-66
2023/05/20 17:37:00;;;;;;;38.60;32.60;;;;;;;19.05;65.01;100828.18;129451;1267;114731;-66
2023/05/20 17:40:06;;;;;;;40.80;32.60;;;;;;;18.97;64.97;100828.23;129452;1265;114723;-66
2023/05/20 17:43:08;;;;;;;40.00;31.90;;;;;;;18.88;65.22;100826.95;129353;1271;114722;-66
2023/05/20 17:46:11;;;;;;;35.10;30.80;;;;;;;18.79;65.40;100831.23;129274;1268;114761;-67
2023/05/20 17:49:13;;;;;;;39.30;32.60;;;;;;;18.69;65.58;100833.77;129424;1268;114802;-67
2023/05/20 17:52:16;;;;;;;40.40;31.50;;;;;;;18.58;65.70;100827.73;129353;1266;114793;-67
2023/05/20 17:55:20;;;;;;;40.30;34.60;;;;;;;18.48;65.85;100828.23;129391;1266;114733;-66
2023/05/20 17:58:26;;;;;;;;;;;;;;;18.39;66.12;100822.27;129466;1266;114690;-70
2023/05/20 18:01:28;;;;;;;38.60;32.10;;;;;;;18.28;66.54;100818.40;129432;1265;114732;-67
2023/05/20 18:04:31;;;;;;;38.70;32.30;;;;;;;18.18;66.75;100815.67;129252;1266;115257;-66
2023/05/20 18:07:33;;;;;;;40.70;33.30;;;;;;;18.10;67.24;100810.27;129224;1268;114938;-64
2023/05/20 18:10:35;;;;;;;40.20;33.80;;;;;;;18.02;67.18;100814.10;129203;1267;114764;-65
2023/05/20 18:13:37;;;;;;;37.70;33.00;;;;;;;17.94;67.22;100814.10;129216;1267;115250;-66
2023/05/20 18:16:39;;;;;;;42.80;36.10;;;;;;;17.85;67.50;100814.23;129211;1269;114760;-65
2023/05/20 18:19:42;;;;;;;40.50;32.70;;;;;;;17.75;67.61;100813.48;129314;1267;115271;-64
2023/05/20 18:22:44;;;;;;;40.30;32.70;;;;;;;17.65;67.82;100809.33;129327;1269;115158;-64
2023/05/20 18:25:47;;;;;;;45.30;35.40;;;;;;;17.55;68.17;100811.44;129178;1285;128958;-65
2023/05/20 18:28:49;;;;;;;38.70;33.70;;;;;;;17.46;68.45;100811.02;129334;1265;114731;-64
2023/05/20 18:31:52;;;;;;;43.90;36.10;;;;;;;17.36;68.44;100809.02;129201;1267;114699;-66
2023/05/20 18:34:54;;;;;;;49.90;36.00;;;;;;;17.23;68.76;100808.06;129397;1274;114970;-66
2023/05/20 18:37:57;;;;;;;50.80;38.10;;;;;;;17.12;68.91;100811.92;129316;1266;114720;-64
2023/05/20 18:40:59;;;;;;;46.20;35.50;;;;;;;17.00;68.99;100813.27;129440;1261;114776;-63
2023/05/20 18:44:01;;;;;;;48.30;38.30;;;;;;;16.89;69.31;100809.27;129357;1265;115132;-64
2023/05/20 18:47:03;;;;;;;49.70;38.20;;;;;;;16.78;69.58;100806.23;129301;1284;128852;-64
2023/05/20 18:50:06;;;;;;;44.40;36.20;;;;;;;16.67;69.69;100803.54;129482;1261;114761;-66
2023/05/20 18:53:08;;;;;;;47.60;36.40;;;;;;;16.55;69.60;100800.56;129565;1275;114719;-65
2023/05/20 18:56:11;;;;;;;48.60;37.90;;;;;;;16.44;69.80;100803.10;129453;1267;114824;-65
2023/05/20 18:59:14;;;;;;;49.80;39.10;;;;;;;16.33;69.91;100800.23;129456;1279;114827;-65